createdAt,value
2024-03-26T00:02:58.478Z,8.080536912751677
2024-03-26T00:06:45.448Z,8.120805369127517
2024-03-26T00:10:05.744Z,7.570469798657718
2024-03-26T00:13:26.435Z,7.89261744966443
2024-03-26T00:21:30.449Z,7.456375838926174
2024-03-26T00:24:50.703Z,8.463087248322148
2024-03-26T00:28:11.068Z,7.89261744966443
2024-03-26T00:31:31.226Z,8.604026845637584
2024-03-26T00:34:50.924Z,7.959731543624161
2024-03-26T00:38:10.959Z,7.89261744966443
2024-03-26T00:43:28.889Z,8.087248322147651
2024-03-26T00:46:48.333Z,7.617449664429531
2024-03-26T00:51:15.665Z,8.0
2024-03-26T00:54:36.023Z,7.3624161073825505
2024-03-26T00:57:55.995Z,7.651006711409396
2024-03-26T01:01:15.969Z,7.302013422818792
2024-03-26T01:04:36.210Z,6.510067114093959
2024-03-26T01:15:10.494Z,7.416107382550336
2024-03-26T01:18:30.637Z,7.295302013422819
2024-03-26T01:29:01.869Z,7.2885906040268456
2024-03-26T01:32:21.804Z,7.476510067114094
2024-03-26T01:37:35.155Z,6.805369127516778
2024-03-26T01:40:55.237Z,7.322147651006712
2024-03-26T01:44:15.480Z,6.644295302013423
2024-03-26T01:47:35.602Z,7.181208053691275
2024-03-26T01:50:55.427Z,7.328859060402684
2024-03-26T01:54:15.507Z,6.610738255033557
2024-03-26T01:57:36.141Z,6.879194630872483
2024-03-26T02:00:56.424Z,7.422818791946309
2024-03-26T02:04:16.168Z,8.369127516778523
2024-03-26T02:07:36.100Z,6.906040268456376
2024-03-26T02:10:56.199Z,6.530201342281879
2024-03-26T02:14:15.851Z,7.268456375838926
2024-03-26T02:18:42.432Z,7.449664429530201
2024-03-26T02:22:02.710Z,6.751677852348993
2024-03-26T02:25:22.347Z,7.691275167785235
2024-03-26T02:28:42.423Z,7.5369127516778525
2024-03-26T02:32:01.859Z,6.194630872483222
2024-03-26T02:35:21.737Z,7.476510067114094
2024-03-26T02:38:42.092Z,7.114093959731544
2024-03-26T02:44:06.393Z,7.429530201342282
2024-03-26T02:47:26.425Z,7.9865771812080535
2024-03-26T02:50:46.435Z,7.422818791946309
2024-03-26T02:54:06.053Z,8.026845637583893
2024-03-26T02:57:26.418Z,7.342281879194631
2024-03-26T03:00:47.006Z,7.798657718120805
2024-03-26T03:04:07.191Z,8.718120805369127
2024-03-26T03:07:26.905Z,7.76510067114094
2024-03-26T03:10:46.682Z,7.657718120805369
2024-03-26T03:16:40.758Z,8.221476510067115
2024-03-26T03:22:42.216Z,8.845637583892618
2024-03-26T03:26:02.045Z,10.167785234899329
2024-03-26T03:29:21.826Z,10.288590604026846
2024-03-26T03:32:42.376Z,9.174496644295303
2024-03-26T03:36:02.256Z,10.966442953020135
2024-03-26T03:39:22.347Z,10.61744966442953
2024-03-26T03:45:03.587Z,11.51006711409396
2024-03-26T03:50:55.599Z,12.134228187919463
2024-03-26T03:54:15.388Z,11.355704697986576
2024-03-26T03:57:35.225Z,10.577181208053691
2024-03-26T04:00:55.115Z,11.583892617449665
2024-03-26T04:04:15.262Z,11.10738255033557
2024-03-26T04:07:35.833Z,12.020134228187919
2024-03-26T04:10:56.198Z,11.724832214765101
2024-03-26T04:14:16.668Z,12.369127516778523
2024-03-26T04:30:29.892Z,11.181208053691275
2024-03-26T04:33:49.715Z,10.38255033557047
2024-03-26T04:37:09.275Z,10.21476510067114
2024-03-26T04:45:28.878Z,9.48993288590604
2024-03-26T04:48:48.926Z,8.778523489932885
2024-03-26T04:52:08.588Z,9.288590604026846
2024-03-26T04:55:28.650Z,8.234899328859061
2024-03-26T04:58:49.000Z,8.463087248322148
2024-03-26T05:02:09.190Z,9.25503355704698
2024-03-26T05:05:29.640Z,9.328859060402685
2024-03-26T05:08:49.649Z,7.281879194630872
2024-03-26T05:12:08.733Z,8.25503355704698
2024-03-26T05:15:29.632Z,7.644295302013423
2024-03-26T05:18:49.593Z,7.322147651006712
2024-03-26T05:22:10.079Z,7.563758389261745
2024-03-26T05:27:21.893Z,7.006711409395973
2024-03-26T05:30:42.161Z,6.436241610738255
2024-03-26T05:34:03.520Z,7.322147651006712
2024-03-26T05:39:45.552Z,7.825503355704698
2024-03-26T05:47:48.277Z,6.382550335570469
2024-03-26T05:51:07.505Z,7.23489932885906
2024-03-26T05:54:27.237Z,6.181208053691275
2024-03-26T05:57:47.214Z,5.6375838926174495
2024-03-26T06:01:07.164Z,6.315436241610739
2024-03-26T06:04:27.449Z,6.825503355704698
2024-03-26T06:07:47.385Z,7.147651006711409
2024-03-26T06:11:07.547Z,6.785234899328859
2024-03-26T06:14:28.353Z,6.798657718120805
2024-03-26T06:17:48.314Z,6.97986577181208
2024-03-26T06:22:28.310Z,7.597315436241611
2024-03-26T06:25:48.277Z,7.456375838926174
2024-03-26T06:29:08.209Z,7.4630872483221475
2024-03-26T06:36:43.599Z,7.315436241610739
2024-03-26T06:42:57.939Z,6.879194630872483
2024-03-26T06:48:59.068Z,7.959731543624161
2024-03-26T06:52:20.608Z,6.422818791946309
2024-03-26T06:56:25.577Z,7.100671140939597
2024-03-26T06:59:45.824Z,6.395973154362416
2024-03-26T07:03:05.778Z,7.429530201342282
2024-03-26T07:06:26.242Z,6.12751677852349
2024-03-26T07:09:47.295Z,5.74496644295302
2024-03-26T07:13:06.629Z,6.375838926174497
2024-03-26T07:16:41.569Z,6.832214765100671
2024-03-26T07:28:34.899Z,7.4630872483221475
2024-03-26T07:52:21.906Z,6.147651006711409
2024-03-26T07:55:42.082Z,6.060402684563758
2024-03-26T08:02:18.399Z,6.23489932885906
2024-03-26T08:07:45.603Z,5.798657718120805
2024-03-26T08:11:05.234Z,4.97986577181208
2024-03-26T08:16:43.947Z,5.496644295302014
2024-03-26T08:20:03.699Z,5.778523489932886
2024-03-26T08:23:23.840Z,4.449664429530201
2024-03-26T08:26:43.927Z,4.308724832214765
2024-03-26T08:30:05.446Z,5.395973154362416
2024-03-26T08:33:25.966Z,5.510067114093959
2024-03-26T08:36:45.758Z,4.510067114093959
2024-03-26T08:40:06.147Z,5.026845637583893
2024-03-26T08:43:26.182Z,5.442953020134228
2024-03-26T08:46:46.475Z,4.691275167785235
2024-03-26T08:50:06.827Z,4.577181208053691
2024-03-26T08:53:27.504Z,4.6375838926174495
2024-03-26T08:56:47.483Z,4.731543624161074
2024-03-26T09:00:07.112Z,4.550335570469799
2024-03-26T09:03:26.493Z,4.912751677852349
2024-03-26T09:06:46.029Z,5.067114093959732
2024-03-26T09:12:09.807Z,4.751677852348993
2024-03-26T09:15:30.169Z,5.268456375838926
2024-03-26T09:18:50.147Z,5.026845637583893
2024-03-26T09:22:09.917Z,5.281879194630872
2024-03-26T09:27:40.852Z,5.476510067114094
2024-03-26T09:31:00.822Z,5.395973154362416
2024-03-26T09:37:47.680Z,5.738255033557047
2024-03-26T09:41:07.961Z,5.02013422818792
2024-03-26T09:44:27.644Z,5.6644295302013425
2024-03-26T09:47:47.559Z,4.919463087248322
2024-03-26T09:51:07.314Z,5.845637583892618
2024-03-26T09:54:27.290Z,5.214765100671141
2024-03-26T09:59:45.106Z,5.201342281879195
2024-03-26T10:03:04.998Z,5.671140939597316
2024-03-26T10:06:25.368Z,4.89261744966443
2024-03-26T10:09:45.813Z,4.852348993288591
2024-03-26T10:15:51.354Z,5.530201342281879
2024-03-26T10:19:10.685Z,4.939597315436242
2024-03-26T10:22:30.688Z,4.9865771812080535
2024-03-26T10:25:49.913Z,4.691275167785235
2024-03-26T10:29:10.909Z,5.496644295302014
2024-03-26T10:32:32.649Z,5.093959731543624
2024-03-26T10:35:52.444Z,4.879194630872483
2024-03-26T10:39:12.157Z,5.281879194630872
2024-03-26T10:46:17.143Z,4.395973154362416
2024-03-26T11:02:10.475Z,4.959731543624161
2024-03-26T11:05:30.700Z,5.067114093959732
2024-03-26T11:09:46.643Z,4.97986577181208
2024-03-26T11:13:05.971Z,4.798657718120805
2024-03-26T11:17:25.472Z,4.543624161073826
2024-03-26T11:22:51.741Z,4.87248322147651
2024-03-26T11:28:09.274Z,5.476510067114094
2024-03-26T11:31:29.874Z,5.275167785234899
2024-03-26T11:34:49.941Z,5.8389261744966445
2024-03-26T11:38:18.864Z,6.657718120805369
2024-03-26T11:41:39.192Z,6.624161073825503
2024-03-26T11:44:59.750Z,6.100671140939597
2024-03-26T11:48:19.695Z,6.442953020134228
2024-03-26T11:51:42.155Z,6.859060402684563
2024-03-26T11:55:03.406Z,7.006711409395973
2024-03-26T11:58:23.480Z,6.208053691275167
2024-03-26T12:01:43.634Z,6.885906040268456
2024-03-26T12:05:03.482Z,7.080536912751678
2024-03-26T12:08:23.835Z,7.510067114093959
2024-03-26T12:13:10.812Z,6.422818791946309
2024-03-26T12:16:34.316Z,7.006711409395973
2024-03-26T12:30:28.233Z,8.06711409395973
2024-03-26T12:33:48.032Z,8.409395973154362
2024-03-26T12:37:07.949Z,7.604026845637584
2024-03-26T12:40:28.953Z,7.530201342281879
2024-03-26T12:43:48.790Z,7.510067114093959
2024-03-26T12:47:08.647Z,7.053691275167785
2024-03-26T12:50:28.910Z,7.610738255033557
2024-03-26T12:53:48.872Z,7.375838926174497
2024-03-26T12:57:08.076Z,7.087248322147651
2024-03-26T13:00:27.765Z,7.134228187919463
2024-03-26T13:03:47.422Z,6.657718120805369
2024-03-26T13:07:07.275Z,6.751677852348993
2024-03-26T13:10:27.976Z,6.825503355704698
2024-03-26T13:13:50.037Z,6.939597315436242
2024-03-26T13:17:11.056Z,7.033557046979865
2024-03-26T13:20:31.197Z,6.557046979865772
2024-03-26T13:23:51.304Z,6.503355704697986
2024-03-26T13:27:11.562Z,6.8389261744966445
2024-03-26T13:30:37.982Z,7.395973154362416
2024-03-26T13:36:18.066Z,7.167785234899329
2024-03-26T13:39:37.958Z,7.12751677852349
2024-03-26T13:42:58.341Z,6.912751677852349
2024-03-26T13:46:18.305Z,6.033557046979865
2024-03-26T13:49:38.683Z,7.2885906040268456
2024-03-26T13:53:51.590Z,6.7114093959731544
2024-03-26T13:57:12.213Z,6.738255033557047
2024-03-26T14:00:32.704Z,6.630872483221476
2024-03-26T14:03:52.944Z,7.080536912751678
2024-03-26T14:07:12.937Z,6.87248322147651
2024-03-26T14:10:33.008Z,6.4630872483221475
2024-03-26T14:13:53.876Z,6.604026845637584
2024-03-26T14:17:13.647Z,10.456375838926174
2024-03-26T14:20:33.118Z,21.624161073825505
2024-03-26T14:23:53.232Z,12.308724832214764
2024-03-26T14:28:38.667Z,8.026845637583893
2024-03-26T14:31:58.613Z,6.845637583892618
2024-03-26T14:35:18.573Z,6.906040268456376
2024-03-26T14:38:38.953Z,7.651006711409396
2024-03-26T14:42:15.681Z,6.89261744966443
2024-03-26T14:47:41.105Z,7.550335570469799
2024-03-26T14:51:01.080Z,8.248322147651006
2024-03-26T14:54:20.935Z,7.073825503355705
2024-03-26T14:57:42.010Z,7.939597315436242
2024-03-26T15:01:01.580Z,8.026845637583893
2024-03-26T15:04:21.257Z,8.791946308724832
2024-03-26T15:07:41.195Z,8.63758389261745
2024-03-26T15:11:01.335Z,8.684563758389261
2024-03-26T15:14:21.623Z,7.684563758389261
2024-03-26T15:17:41.394Z,7.785234899328859
2024-03-26T15:21:00.954Z,8.476510067114093
2024-03-26T15:24:20.889Z,8.38255033557047
2024-03-26T15:27:41.031Z,7.859060402684563
2024-03-26T15:31:00.705Z,7.429530201342282
2024-03-26T15:34:21.176Z,8.543624161073826
2024-03-26T15:37:41.665Z,9.503355704697986
2024-03-26T15:41:02.039Z,9.026845637583893
2024-03-26T15:44:21.456Z,8.657718120805368
2024-03-26T15:47:53.178Z,10.295302013422818
2024-03-26T15:51:13.271Z,8.953020134228188
2024-03-26T15:54:33.028Z,9.751677852348994
2024-03-26T16:08:31.548Z,9.919463087248323
2024-03-26T16:11:51.490Z,10.302013422818792
2024-03-26T16:15:10.971Z,11.120805369127517
2024-03-26T16:18:33.106Z,10.845637583892618
2024-03-26T16:21:52.855Z,10.926174496644295
2024-03-26T16:25:12.931Z,10.859060402684564
2024-03-26T16:28:33.054Z,12.328859060402685
2024-03-26T16:48:54.515Z,12.25503355704698
2024-03-26T16:52:15.000Z,12.483221476510067
2024-03-26T16:59:42.395Z,12.416107382550335
2024-03-26T17:03:02.236Z,12.718120805369127
2024-03-26T17:06:22.227Z,13.187919463087248
2024-03-26T17:09:42.563Z,14.026845637583893
2024-03-26T17:13:02.525Z,14.812080536912752
2024-03-26T17:19:21.381Z,13.771812080536913
2024-03-26T17:22:41.150Z,14.604026845637584
2024-03-26T17:26:01.195Z,14.838926174496644
2024-03-26T17:30:22.161Z,16.13422818791946
2024-03-26T17:33:43.345Z,15.684563758389261
2024-03-26T17:37:03.621Z,15.771812080536913
2024-03-26T17:40:23.270Z,16.42281879194631
2024-03-26T17:45:07.556Z,16.033557046979865
2024-03-26T17:49:56.950Z,16.0
2024-03-26T17:59:34.647Z,16.100671140939596
2024-03-26T18:03:04.265Z,16.530201342281877
2024-03-26T18:06:36.274Z,16.436241610738254
2024-03-26T18:10:05.084Z,16.48993288590604
2024-03-26T18:14:26.483Z,17.302013422818792
2024-03-26T18:17:47.028Z,17.476510067114095
2024-03-26T18:21:07.100Z,15.657718120805368
2024-03-26T18:24:27.572Z,16.48993288590604
2024-03-26T18:29:03.689Z,15.832214765100671
2024-03-26T18:32:29.551Z,15.778523489932885
2024-03-26T18:35:56.179Z,16.926174496644297
2024-03-26T18:39:16.462Z,16.731543624161073
2024-03-26T18:42:37.235Z,18.536912751677853
2024-03-26T18:45:58.015Z,16.885906040268456
2024-03-26T18:49:18.189Z,19.40268456375839
2024-03-26T18:56:55.216Z,18.06040268456376
2024-03-26T19:08:46.765Z,18.496644295302012
2024-03-26T19:12:06.802Z,19.583892617449663
2024-03-26T19:15:27.677Z,20.107382550335572
2024-03-26T19:18:48.379Z,29.476510067114095
2024-03-26T19:22:08.407Z,26.369127516778523
2024-03-26T19:25:45.202Z,22.268456375838927
2024-03-26T19:29:05.229Z,21.42281879194631
2024-03-26T19:32:26.390Z,21.348993288590606
2024-03-26T19:35:47.195Z,19.973154362416107
2024-03-26T19:39:07.573Z,20.79194630872483
2024-03-26T19:42:28.118Z,19.328859060402685
2024-03-26T19:45:48.608Z,21.02013422818792
2024-03-26T19:58:54.752Z,21.2751677852349
2024-03-26T20:02:14.684Z,20.51006711409396
2024-03-26T20:06:04.851Z,20.523489932885905
2024-03-26T20:09:25.390Z,21.48993288590604
2024-03-26T20:12:45.282Z,22.053691275167786
2024-03-26T20:16:55.908Z,21.14765100671141
2024-03-26T20:20:15.768Z,23.14765100671141
2024-03-26T20:23:36.548Z,22.516778523489933
2024-03-26T20:26:56.380Z,22.953020134228186
2024-03-26T20:30:17.100Z,22.80536912751678
2024-03-26T20:33:55.661Z,23.879194630872483
2024-03-26T20:37:15.820Z,23.241610738255034
2024-03-26T20:40:37.020Z,24.248322147651006
2024-03-26T20:43:56.438Z,24.86577181208054
2024-03-26T20:47:16.516Z,24.322147651006713
2024-03-26T20:50:37.542Z,24.302013422818792
2024-03-26T20:53:57.160Z,23.536912751677853
2024-03-26T20:57:17.139Z,24.691275167785236
2024-03-26T21:00:37.291Z,23.2751677852349
2024-03-26T21:03:57.268Z,23.859060402684563
2024-03-26T21:07:17.434Z,24.174496644295303
2024-03-26T21:10:38.528Z,25.83221476510067
2024-03-26T21:13:59.047Z,25.08724832214765
2024-03-26T21:17:57.424Z,24.395973154362416
2024-03-26T21:21:17.413Z,25.583892617449663
2024-03-26T21:24:38.470Z,26.436241610738254
2024-03-26T21:28:03.717Z,24.993288590604028
2024-03-26T21:31:58.501Z,27.241610738255034
2024-03-26T21:35:19.991Z,25.859060402684563
2024-03-26T21:38:40.570Z,25.651006711409394
2024-03-26T21:43:15.134Z,25.20805369127517
2024-03-26T21:47:17.067Z,24.120805369127517
2024-03-26T21:51:59.602Z,25.7248322147651
2024-03-26T21:55:20.860Z,24.261744966442954
2024-03-26T21:58:41.361Z,25.74496644295302
2024-03-26T22:02:01.811Z,25.63758389261745
2024-03-26T22:05:21.900Z,25.23489932885906
2024-03-26T22:08:42.660Z,26.758389261744966
2024-03-26T22:12:03.166Z,28.76510067114094
2024-03-26T22:15:24.428Z,26.825503355704697
2024-03-26T22:19:45.167Z,24.684563758389263
2024-03-26T22:23:05.043Z,23.86577181208054
2024-03-26T22:26:24.530Z,27.664429530201343
2024-03-26T22:29:50.905Z,26.80536912751678
2024-03-26T22:33:11.000Z,27.885906040268456
2024-03-26T22:41:53.778Z,26.409395973154364
2024-03-26T22:45:13.655Z,27.91946308724832
2024-03-26T22:48:34.088Z,26.543624161073826
2024-03-26T22:51:54.625Z,26.154362416107382
2024-03-26T22:55:15.078Z,26.23489932885906
2024-03-26T23:09:58.600Z,26.70469798657718
2024-03-26T23:13:18.546Z,26.87248322147651
2024-03-26T23:18:26.943Z,28.812080536912752
2024-03-26T23:22:04.860Z,27.140939597315437
2024-03-26T23:26:39.972Z,27.08724832214765
2024-03-26T23:30:00.140Z,25.85234899328859
2024-03-26T23:33:19.903Z,24.892617449664428
2024-03-26T23:36:40.254Z,25.302013422818792
2024-03-26T23:40:00.205Z,24.966442953020135
2024-03-26T23:43:20.567Z,25.986577181208055
2024-03-26T23:46:41.170Z,25.87248322147651
2024-03-26T23:50:01.271Z,24.57046979865772
2024-03-26T23:53:20.577Z,25.21476510067114
2024-03-26T23:56:40.348Z,27.0
